This is the latest recevied weather packets stored in our database for station/object EB1BWO-11. If no packets are shown the sender has not sent any weather packets the latest 10 day(s).
| Time | Temp. | Humidity | Pressure | Rain* | Wind** | Luminosity | Snow |
|---|---|---|---|---|---|---|---|
| 1777307098 | 15.56° C | 73% | 1020.4 hPa | - | - | - | - |
| 1777306198 | 16.11° C | 70% | 1020.7 hPa | - | - | - | - |
| 1777305298 | 16.11° C | 70% | 1020.9 hPa | - | - | - | - |
| 1777304398 | 16.67° C | 69% | 1020.9 hPa | - | - | - | - |
| 1777303498 | 16.67° C | 67% | 1020.9 hPa | - | - | - | - |
| 1777302598 | 16.67° C | 68% | 1021 hPa | - | - | - | - |
| 1777301697 | 16.67° C | 68% | 1020.9 hPa | - | - | - | - |
| 1777300797 | 17.22° C | 67% | 1021 hPa | - | - | - | - |
| 1777299897 | 18.89° C | 65% | 1021 hPa | - | - | - | - |
| 1777298997 | 18.33° C | 65% | 1021.1 hPa | - | - | - | - |
| 1777298097 | 17.78° C | 66% | 1021.3 hPa | - | - | - | - |
| 1777297197 | 18.33° C | 66% | 1021.3 hPa | - | - | - | - |
| 1777296297 | 18.89° C | 64% | 1021.2 hPa | - | - | - | - |
| 1777295396 | 18.89° C | 63% | 1021.3 hPa | - | - | - | - |
| 1777294496 | 18.89° C | 63% | 1021.5 hPa | - | - | - | - |
| 1777293596 | 20.56° C | 60% | 1021.4 hPa | - | - | - | - |
| 1777292695 | 21.11° C | 58% | 1021.4 hPa | - | - | - | - |
| 1777291795 | 20.56° C | 60% | 1021.5 hPa | - | - | - | - |
| 1777290895 | 20° C | 61% | 1021.6 hPa | - | - | - | - |
| 1777289995 | 18.89° C | 62% | 1021.8 hPa | - | - | - | - |
| 1777289095 | 18.33° C | 63% | 1022.2 hPa | - | - | - | - |
| 1777288194 | 17.22° C | 65% | 1022.3 hPa | - | - | - | - |
| 1777287294 | 17.78° C | 65% | 1022.4 hPa | - | - | - | - |
| 1777286394 | 18.89° C | 63% | 1022.5 hPa | - | - | - | - |
| 1777285494 | 20.56° C | 59% | 1022.5 hPa | - | - | - | - |
* Rain since midnight (hover to see other rain measurements)
** Current wind speed in m/s (hover to see current wind gust speed)